Jericho, New York
Current Conditions -  °F | °C
As of 4:53 AM on Friday 24 Oct 2014 (Local Time) from KFRG Reporting Station
Broken Clouds Broken Clouds  
Wind Chill: 52°   Ceiling: 3800
Heat Index: 52°   Visibility: 10mi
Dew Point: 44°   Wind: 10mph
Humidity: 74%   Direction: 330°NNW
Pressure: 29.76"   Gusts: NA
Location:  40.79°N, 73.54°W
Report Text: KFRG 240853Z AUTO 33009KT 10SM BKN038 BKN055 11/07 A2976 RMK AO2 SLP077 T01110067 53008
Loading
Personal Weather Stations






























Interactive Weather Map
Tropical Storm Tracking
New forecast layout! Learn more

10-Day Weather Forecast

Advertisements
Track Severe Weather on mobile